Purdue University Airport
KLAF : now visible

Airfield :











YOU CAN JOIN US ON...

 
LOGIN :

Register | Disclaimer

   EN    FR    IT 

 









Legend :    VFR   Marginal VFR   IFR   Intensive IFR   Very Intensive IFR
Visi :
Ceiling :
>= 8 km
>= 3000ft
5 to 8 km
1000 to 3000 ft
1500m to 5 km
500 to 1000 ft
800 to 1500m
200 to 500 ft
< 800m
< 200 ft
Symbols :   Thunderstorms  Fog  Heavy snow  Heavy precipitations  Wind > 20 kt






- Airport Elevation : 606 ft
- IATA code : LAF


KLAF - Purdue University

CURRENT METAR :
  • 021154Z 17007KT 10SM OVC070 03/M07 A3014 RMK AO2 SLP213 T00331067 10033 20017 58016

EXPIRED METARs :
  • 021054Z AUTO 20007KT 10SM BKN070 OVC100 03/M07 A3016 RMK AO2 SLP218 T00281067
  • 020954Z AUTO 19008G17KT 160V230 10SM SCT070 OVC100 02/M07 A3018 RMK AO2 SLP224 T00221067

TAF KLAF
Valid from the 02 at 12:00 until the 03 at 12:00 UTC


021120Z 0212/0312 18010KT P6SM OVC100 WS020/21040KT
FM021700 19018G32KT P6SM BKN050 WS020/21050KT
FM030300 21023G39KT P6SM OVC025 WS020/22055KT
FM030800 26020G37KT P6SM BKN015
FM031000 28020G33KT P6SM BKN080
KZAU FIR / North America



MET'MAP, your aeronautical weather chart ! - Copyright ORBIFLY December 2007 - Disclaimer

ORBIFLY MET'MAP TEAM :

Programming & Development : Alexandra Zaïnal
Original concept : Baudouin d'Aumeries
Technical & hardware support : Manuel Goepfert
Assistance : Marc-Olivier Méhu




SOURCES & CREDITS :

   NOAA       Earth
Advisory